Time;durP1;ratioP1;P1;durP2;ratioP2;P2;SDS_P1;SDS_P2;PMS_P1;PMS_P2;Temp;Humidity;BMP_temperature;BMP_pressure;BME280_temperature;BME280_humidity;BME280_pressure;Samples;Min_cycle;Max_cycle;Signal;HPM_P1;HPM_P2
2023/02/13 00:01:09;;;;;;;33.70;18.40;;;;;;;7.10;53.98;99338.41;5004378;28;20189;-70
2023/02/13 00:03:35;;;;;;;25.03;16.47;;;;;;;7.05;53.88;99340.44;5002983;28;20213;-71
2023/02/13 00:06:00;;;;;;;26.37;16.40;;;;;;;7.02;53.77;99338.78;4998579;28;20455;-69
2023/02/13 00:08:25;;;;;;;28.77;17.87;;;;;;;7.00;54.00;99337.19;5003158;28;20280;-71
2023/02/13 00:10:51;;;;;;;27.67;17.10;;;;;;;6.96;53.83;99343.47;5005265;28;20199;-70
2023/02/13 00:13:16;;;;;;;29.90;18.00;;;;;;;6.94;54.15;99340.97;5006183;28;20216;-70
2023/02/13 00:15:42;;;;;;;29.27;17.63;;;;;;;6.90;54.07;99331.59;5005119;28;20191;-69
2023/02/13 00:18:07;;;;;;;30.50;19.00;;;;;;;6.84;53.92;99342.34;5007368;28;20197;-72
2023/02/13 00:20:33;;;;;;;30.33;18.53;;;;;;;6.61;54.30;99332.13;5006923;28;20208;-71
2023/02/13 00:22:59;;;;;;;32.00;18.87;;;;;;;6.67;54.92;99333.59;5003194;28;20298;-70
2023/02/13 00:25:24;;;;;;;29.20;17.23;;;;;;;6.65;55.57;99334.59;5002865;28;20205;-71
2023/02/13 00:27:51;;;;;;;27.30;17.20;;;;;;;6.72;54.96;99333.34;5004426;28;20730;-71
2023/02/13 00:30:16;;;;;;;30.07;18.30;;;;;;;6.75;54.47;99343.63;5006240;28;20181;-68
2023/02/13 00:32:42;;;;;;;26.40;16.67;;;;;;;6.78;53.97;99338.28;5005684;28;20427;-70
2023/02/13 00:35:07;;;;;;;25.53;15.90;;;;;;;6.82;54.17;99336.34;5007559;28;20201;-70
2023/02/13 00:37:33;;;;;;;27.00;16.90;;;;;;;6.75;54.18;99338.41;5006400;28;20180;-72
2023/02/13 00:39:58;;;;;;;25.03;16.10;;;;;;;6.70;54.85;99343.00;4999737;28;20558;-72
2023/02/13 00:42:25;;;;;;;29.60;16.70;;;;;;;6.66;54.72;99333.66;5005335;28;20216;-70
2023/02/13 00:44:51;;;;;;;26.07;16.30;;;;;;;6.68;54.56;99343.09;5004545;28;20628;-70
2023/02/13 00:47:17;;;;;;;29.00;16.43;;;;;;;6.68;54.44;99332.66;5004958;28;20467;-69
2023/02/13 00:49:42;;;;;;;25.33;16.40;;;;;;;6.60;54.82;99335.66;5002795;28;20994;-69
2023/02/13 00:52:08;;;;;;;25.83;16.00;;;;;;;6.61;54.75;99332.13;4994072;28;20189;-69
2023/02/13 00:54:33;;;;;;;25.00;15.30;;;;;;;6.64;54.73;99335.50;4997417;28;20288;-69
2023/02/13 00:56:59;;;;;;;30.30;17.37;;;;;;;6.69;54.32;99341.31;5002903;28;20259;-69
2023/02/13 00:59:24;;;;;;;24.90;15.90;;;;;;;6.73;54.44;99337.66;5004514;28;20200;-69
2023/02/13 01:01:50;;;;;;;25.83;15.87;;;;;;;6.70;54.49;99335.19;5008581;28;20228;-69
2023/02/13 01:04:15;;;;;;;25.20;15.83;;;;;;;6.69;54.16;99338.72;5000329;28;20247;-69
2023/02/13 01:06:41;;;;;;;26.90;16.80;;;;;;;6.64;54.40;99328.50;5001847;28;20188;-69
2023/02/13 01:09:06;;;;;;;25.90;15.97;;;;;;;6.55;54.55;99328.97;5005348;28;20191;-71
2023/02/13 01:11:31;;;;;;;30.07;17.20;;;;;;;6.61;54.17;99326.91;4998079;28;20275;-68
2023/02/13 01:13:57;;;;;;;25.30;15.50;;;;;;;6.57;54.15;99327.97;5006976;28;20330;-69
2023/02/13 01:16:22;;;;;;;28.50;15.60;;;;;;;6.51;54.01;99328.28;5002169;28;20220;-68
2023/02/13 01:18:48;;;;;;;23.07;15.20;;;;;;;6.49;53.90;99330.13;5007746;28;20648;-67
2023/02/13 01:21:18;;;;;;;25.07;15.67;;;;;;;6.44;54.04;99324.28;5003517;28;20184;-70
2023/02/13 01:23:44;;;;;;;28.10;16.90;;;;;;;6.43;54.63;99323.44;5002222;28;20220;-68
2023/02/13 01:26:16;;;;;;;28.57;16.93;;;;;;;6.28;55.16;99329.38;4999704;28;20427;-68
2023/02/13 01:28:41;;;;;;;29.07;16.73;;;;;;;6.36;54.86;99332.47;4984899;28;20460;-69
2023/02/13 01:31:07;;;;;;;26.87;15.03;;;;;;;6.41;54.29;99324.44;5006818;28;20514;-70
2023/02/13 01:33:34;;;;;;;24.47;15.87;;;;;;;6.29;54.33;99321.50;5004059;28;20215;-68
2023/02/13 01:36:05;;;;;;;25.40;15.73;;;;;;;6.38;54.28;99324.59;5000212;28;20814;-70
2023/02/13 01:38:31;;;;;;;25.37;15.20;;;;;;;6.39;54.21;99318.47;5000283;28;20535;-68
2023/02/13 01:40:56;;;;;;;25.73;15.53;;;;;;;6.34;54.40;99308.25;5003762;28;20510;-70
2023/02/13 01:43:22;;;;;;;28.43;16.07;;;;;;;6.42;54.11;99310.50;5004190;28;20712;-67
2023/02/13 01:45:53;;;;;;;29.13;16.77;;;;;;;6.38;54.26;99316.78;4995123;28;20305;-72
2023/02/13 01:48:22;;;;;;;24.97;16.07;;;;;;;6.36;53.99;99308.19;4979063;28;20428;-70
2023/02/13 01:51:00;;;;;;;27.67;16.30;;;;;;;6.39;54.28;99319.28;4988404;28;20434;-69
2023/02/13 01:53:35;;;;;;;33.43;18.23;;;;;;;6.44;54.37;99319.06;4984340;28;20432;-72
2023/02/13 01:56:07;;;;;;;27.37;16.93;;;;;;;6.38;54.29;99309.78;4978604;28;20439;-70
2023/02/13 01:58:34;;;;;;;29.30;17.00;;;;;;;6.32;54.70;99310.09;4978048;28;20478;-69
2023/02/13 02:01:01;;;;;;;29.80;16.40;;;;;;;6.32;54.56;99314.44;4989808;28;20506;-69
2023/02/13 02:03:47;;;;;;;26.37;15.70;;;;;;;6.35;54.39;99315.16;4986136;28;20464;-68
2023/02/13 02:06:26;;;;;;;25.90;15.57;;;;;;;6.35;54.40;99317.78;4981920;28;20536;-69
2023/02/13 02:08:53;;;;;;;28.27;16.27;;;;;;;6.33;53.87;99316.13;5005461;28;20427;-68
2023/02/13 02:11:41;;;;;;;32.40;16.67;;;;;;;6.15;54.26;99313.50;5001364;28;20852;-68
2023/02/13 02:14:06;;;;;;;26.67;16.83;;;;;;;6.17;54.33;99314.28;4988234;28;20515;-69
2023/02/13 02:16:32;;;;;;;26.67;15.80;;;;;;;6.14;53.94;99314.41;5001910;28;20519;-68
2023/02/13 02:19:00;;;;;;;30.57;18.30;;;;;;;6.15;54.60;99316.13;5006924;28;20208;-68
2023/02/13 02:21:28;;;;;;;28.60;16.70;;;;;;;6.13;54.41;99320.53;4984406;28;20215;-69
2023/02/13 02:24:18;;;;;;;26.60;17.83;;;;;;;6.11;54.77;99319.78;5001125;28;20450;-68
2023/02/13 02:27:14;;;;;;;25.93;16.90;;;;;;;6.07;54.54;99313.88;4979735;28;20422;-70
2023/02/13 02:29:54;;;;;;;27.50;15.33;;;;;;;6.09;54.65;99313.78;4979183;28;20761;-73
2023/02/13 02:32:22;;;;;;;31.00;17.27;;;;;;;6.05;54.59;99313.09;5001328;28;20424;-70
2023/02/13 02:34:53;;;;;;;33.47;17.87;;;;;;;6.01;54.55;99315.91;5005028;28;20444;-70
2023/02/13 02:37:37;;;;;;;31.27;17.17;;;;;;;5.90;54.53;99306.81;4981532;28;20806;-69
2023/02/13 02:40:21;;;;;;;28.13;16.63;;;;;;;5.97;54.99;99310.81;4999959;28;20428;-70
2023/02/13 02:43:12;;;;;;;28.70;16.50;;;;;;;6.01;54.29;99311.53;4994192;28;20455;-70
2023/02/13 02:46:01;;;;;;;31.27;16.90;;;;;;;5.99;54.50;99308.13;4995834;28;20427;-71
2023/02/13 02:51:22;;;;;;;29.23;16.70;;;;;;;5.88;55.30;99308.63;5000734;28;20454;-69
2023/02/13 02:55:05;;;;;;;31.07;17.00;;;;;;;5.91;54.97;99305.91;4984614;28;20459;-68
2023/02/13 02:56:53;;;;;;;25.90;15.30;;;;;;;5.97;54.49;99310.81;4974187;28;20431;-68
2023/02/13 03:07:53;;;;;;;30.63;17.47;;;;;;;6.05;54.48;99304.44;4896723;29;20448;-70
2023/02/13 03:13:22;;;;;;;31.37;17.93;;;;;;;5.87;55.08;99314.75;4988385;28;20191;-70
2023/02/13 03:24:32;;;;;;;29.77;17.10;;;;;;;5.83;55.66;99315.81;4978480;28;21009;-70
2023/02/13 03:27:08;;;;;;;29.07;17.77;;;;;;;5.82;55.69;99314.97;4978739;28;20427;-70
2023/02/13 03:32:50;;;;;;;31.13;16.77;;;;;;;5.86;54.95;99318.28;5001168;28;20431;-69
2023/02/13 03:38:49;;;;;;;30.13;17.07;;;;;;;5.79;55.45;99322.09;4952374;28;20472;-70
2023/02/13 03:41:22;;;;;;;30.70;16.93;;;;;;;5.78;55.03;99320.41;5005066;28;20515;-70
2023/02/13 03:43:57;;;;;;;30.40;16.90;;;;;;;5.78;55.80;99325.59;4981428;28;20605;-69
2023/02/13 03:46:24;;;;;;;32.63;17.40;;;;;;;5.72;55.33;99320.66;4969526;28;20470;-67
2023/02/13 03:51:41;;;;;;;30.00;16.50;;;;;;;5.81;55.15;99323.69;4990226;28;20784;-69
2023/02/13 03:59:54;;;;;;;29.23;16.13;;;;;;;5.74;54.67;99337.06;5007745;28;20442;-70
2023/02/13 04:02:24;;;;;;;31.87;18.80;;;;;;;5.68;54.60;99332.97;4986503;28;20931;-68
2023/02/13 04:04:57;;;;;;;31.03;17.70;;;;;;;5.67;54.02;99337.31;4990966;28;20951;-69
2023/02/13 04:07:29;;;;;;;29.57;16.50;;;;;;;5.66;55.18;99334.78;4987435;28;20424;-69
2023/02/13 04:09:59;;;;;;;33.00;17.90;;;;;;;5.61;56.42;99337.59;5007432;28;20481;-70
2023/02/13 04:12:37;;;;;;;32.90;17.83;;;;;;;5.64;55.94;99345.28;4988501;28;20416;-69
2023/02/13 04:15:12;;;;;;;31.63;17.00;;;;;;;5.63;55.34;99346.19;5006065;28;20443;-69
2023/02/13 04:17:44;;;;;;;27.00;16.53;;;;;;;5.60;54.79;99348.94;4992560;28;20496;-67
2023/02/13 04:20:10;;;;;;;28.30;16.07;;;;;;;5.64;54.71;99350.50;4985942;28;20946;-68
2023/02/13 04:22:41;;;;;;;33.70;17.37;;;;;;;5.48;55.13;99354.66;4991137;28;20458;-68
2023/02/13 04:25:07;;;;;;;32.00;17.80;;;;;;;5.44;55.64;99342.69;4983642;28;20543;-67
2023/02/13 04:27:32;;;;;;;31.90;18.50;;;;;;;5.46;55.97;99349.56;4991769;28;20798;-68
2023/02/13 04:29:58;;;;;;;32.03;17.80;;;;;;;5.35;56.77;99349.19;4989516;28;20192;-70
2023/02/13 04:32:23;;;;;;;34.23;18.43;;;;;;;5.42;56.87;99353.19;4990477;28;20192;-69
2023/02/13 04:34:48;;;;;;;34.50;18.17;;;;;;;5.37;56.30;99350.78;5006304;28;20236;-69
2023/02/13 04:37:14;;;;;;;35.07;18.33;;;;;;;5.44;56.25;99347.91;4984812;28;20602;-68
2023/02/13 04:39:39;;;;;;;31.93;17.97;;;;;;;5.46;55.82;99351.28;5000603;28;20197;-69
2023/02/13 04:42:05;;;;;;;29.40;16.23;;;;;;;5.46;55.15;99352.16;4988214;28;20216;-69
2023/02/13 04:44:30;;;;;;;29.43;17.60;;;;;;;5.49;55.41;99346.78;5000895;28;20284;-69
2023/02/13 04:46:56;;;;;;;33.17;17.00;;;;;;;5.49;54.65;99351.16;5000356;28;20215;-69
2023/02/13 04:49:21;;;;;;;31.90;16.13;;;;;;;5.54;54.44;99346.59;5001995;28;20208;-68
2023/02/13 04:51:46;;;;;;;32.90;17.77;;;;;;;5.49;54.89;99345.97;5007652;28;20208;-69
2023/02/13 04:54:12;;;;;;;30.53;17.60;;;;;;;5.49;54.76;99356.38;5008010;28;20232;-71
2023/02/13 04:56:37;;;;;;;31.73;15.50;;;;;;;5.49;54.64;99354.59;5007960;28;20181;-70
2023/02/13 04:59:03;;;;;;;27.23;16.27;;;;;;;5.50;54.38;99358.06;5006032;28;20238;-69
2023/02/13 05:01:28;;;;;;;29.10;16.00;;;;;;;5.49;54.39;99367.59;4994064;28;20733;-69
2023/02/13 05:03:54;;;;;;;26.87;15.90;;;;;;;5.36;54.58;99362.09;5006438;28;20196;-69
2023/02/13 05:06:19;;;;;;;29.70;16.93;;;;;;;5.22;54.32;99362.72;5002536;28;20230;-67
2023/02/13 05:08:45;;;;;;;31.30;17.70;;;;;;;5.22;54.72;99370.50;5006544;28;20263;-69
2023/02/13 05:11:10;;;;;;;29.80;16.57;;;;;;;5.20;55.00;99361.06;5001984;28;20193;-68
2023/02/13 05:13:35;;;;;;;31.77;17.13;;;;;;;5.19;54.84;99356.78;4999313;28;20697;-69
2023/02/13 05:16:01;;;;;;;29.67;16.73;;;;;;;5.20;55.20;99358.47;5005660;28;20642;-68
2023/02/13 05:18:27;;;;;;;32.10;17.23;;;;;;;5.26;55.23;99358.22;5000261;28;20279;-69
2023/02/13 05:23:40;;;;;;;31.60;18.27;;;;;;;5.37;54.69;99357.72;4956982;28;20255;-69
2023/02/13 05:26:06;;;;;;;30.93;17.10;;;;;;;5.34;54.67;99350.91;5006360;28;20415;-69
2023/02/13 05:31:15;;;;;;;30.57;18.00;;;;;;;5.34;54.92;99360.50;4996241;28;20297;-69
2023/02/13 05:33:41;;;;;;;29.27;16.80;;;;;;;5.29;54.68;99360.69;5009004;28;20483;-69
2023/02/13 05:36:07;;;;;;;28.90;16.13;;;;;;;5.19;54.60;99357.63;4993913;28;20275;-69
2023/02/13 05:38:32;;;;;;;34.60;17.33;;;;;;;5.12;54.71;99363.16;4999670;28;20191;-69
2023/02/13 05:40:59;;;;;;;37.13;19.23;;;;;;;5.17;54.56;99359.44;5003156;28;20260;-69
2023/02/13 05:43:25;;;;;;;31.93;19.33;;;;;;;5.17;54.55;99358.59;4995170;28;20259;-68
2023/02/13 05:45:51;;;;;;;30.77;17.97;;;;;;;5.17;54.16;99362.03;5001651;28;20497;-69
2023/02/13 05:48:16;;;;;;;32.07;17.73;;;;;;;5.17;54.52;99363.78;5000223;28;20429;-69
2023/02/13 05:50:42;;;;;;;34.57;18.10;;;;;;;5.11;55.26;99361.47;5009042;28;20215;-68
2023/02/13 05:53:07;;;;;;;33.10;18.40;;;;;;;5.10;55.70;99363.22;5000213;28;20189;-67
2023/02/13 05:55:32;;;;;;;35.50;18.70;;;;;;;5.15;56.12;99357.81;5005695;28;20292;-68
2023/02/13 05:57:58;;;;;;;34.37;18.60;;;;;;;5.12;56.67;99357.94;5003049;28;20189;-69
2023/02/13 06:00:24;;;;;;;32.67;17.77;;;;;;;5.14;56.01;99356.97;5000714;28;20213;-67
2023/02/13 06:02:49;;;;;;;33.53;18.10;;;;;;;5.14;56.10;99356.97;4998405;28;20235;-68
2023/02/13 06:05:15;;;;;;;30.83;17.60;;;;;;;5.14;56.06;99361.34;4990286;28;20300;-68
2023/02/13 06:07:40;;;;;;;36.80;17.90;;;;;;;5.20;55.63;99350.66;5007408;28;20247;-69
2023/02/13 06:10:06;;;;;;;36.83;18.67;;;;;;;5.25;55.44;99347.84;5001601;28;20188;-69
2023/02/13 06:12:31;;;;;;;35.00;17.97;;;;;;;5.24;54.62;99349.63;5004374;28;20176;-68
2023/02/13 06:14:57;;;;;;;30.33;18.20;;;;;;;5.26;54.69;99355.63;5002831;28;20295;-68
2023/02/13 06:17:22;;;;;;;35.93;19.43;;;;;;;5.28;54.94;99350.34;4999627;28;20236;-69
2023/02/13 06:19:48;;;;;;;28.67;17.10;;;;;;;5.28;54.63;99356.41;4987052;28;20231;-69
2023/02/13 06:22:13;;;;;;;32.90;18.27;;;;;;;5.29;54.50;99359.81;5000176;28;20316;-69
2023/02/13 06:24:39;;;;;;;31.50;17.27;;;;;;;5.25;54.61;99359.13;4995999;28;20290;-69
2023/02/13 06:27:04;;;;;;;31.60;18.30;;;;;;;5.21;55.14;99360.16;5000552;28;20213;-69
2023/02/13 06:29:31;;;;;;;32.10;17.87;;;;;;;5.22;54.57;99356.66;5008840;28;20702;-67
2023/02/13 06:31:57;;;;;;;35.43;18.73;;;;;;;5.22;54.75;99359.25;4992460;28;20225;-70
2023/02/13 06:34:22;;;;;;;34.50;19.43;;;;;;;5.19;55.25;99364.56;5004007;28;20517;-70
2023/02/13 06:36:48;;;;;;;33.43;18.70;;;;;;;5.05;55.99;99366.00;5000412;28;20227;-69
2023/02/13 06:39:13;;;;;;;43.10;19.37;;;;;;;5.10;56.24;99359.75;5005828;28;20189;-69
2023/02/13 06:41:39;;;;;;;37.60;19.67;;;;;;;5.16;55.25;99364.72;4976054;28;20188;-69
2023/02/13 06:44:04;;;;;;;33.17;19.70;;;;;;;5.11;55.25;99361.47;4996435;28;20224;-68
2023/02/13 06:46:30;;;;;;;38.73;20.50;;;;;;;5.09;55.69;99364.13;5001136;28;20610;-68
2023/02/13 06:48:55;;;;;;;34.63;20.13;;;;;;;5.05;56.36;99363.41;4970612;28;20231;-70
2023/02/13 06:51:20;;;;;;;39.23;20.00;;;;;;;5.13;56.40;99367.44;5004283;28;20323;-69
2023/02/13 06:53:46;;;;;;;38.50;21.17;;;;;;;5.20;56.41;99366.25;5010751;28;20220;-70
2023/02/13 06:56:11;;;;;;;35.73;20.00;;;;;;;5.16;55.47;99367.31;5003944;28;20631;-70
2023/02/13 06:58:38;;;;;;;37.37;21.07;;;;;;;5.08;55.81;99365.88;5004478;28;20185;-71
2023/02/13 07:01:04;;;;;;;42.90;22.13;;;;;;;5.17;55.78;99369.84;4988465;28;20188;-70
2023/02/13 07:03:30;;;;;;;42.57;21.40;;;;;;;5.18;56.25;99374.13;5005040;28;21076;-69
2023/02/13 07:05:55;;;;;;;41.10;23.17;;;;;;;5.29;56.09;99380.63;4996926;28;20416;-69
2023/02/13 07:08:21;;;;;;;41.50;22.07;;;;;;;5.36;55.63;99377.69;4998389;28;21634;-68
2023/02/13 07:10:47;;;;;;;40.60;21.70;;;;;;;5.41;55.38;99376.66;5001525;28;20686;-70
2023/02/13 07:13:12;;;;;;;43.33;22.30;;;;;;;5.47;55.36;99373.78;4992650;28;20185;-71
2023/02/13 07:15:38;;;;;;;40.50;22.30;;;;;;;5.50;55.50;99368.47;4991244;28;20240;-70
2023/02/13 07:18:04;;;;;;;44.27;24.43;;;;;;;5.58;56.41;99373.34;4992584;28;20615;-70
2023/02/13 07:20:30;;;;;;;44.53;26.00;;;;;;;5.87;59.65;99372.03;4993169;28;20613;-69
2023/02/13 07:23:03;;;;;;;43.73;24.70;;;;;;;6.14;59.41;99379.53;4990517;28;20500;-69
2023/02/13 07:25:29;;;;;;;43.87;24.67;;;;;;;6.37;58.58;99375.00;5001381;28;20728;-71
2023/02/13 07:27:57;;;;;;;39.23;22.73;;;;;;;6.54;57.17;99380.25;4998654;28;20436;-71
2023/02/13 07:30:22;;;;;;;43.07;24.47;;;;;;;6.69;56.28;99381.28;5003138;28;20189;-70
2023/02/13 07:32:48;;;;;;;36.23;21.27;;;;;;;6.79;55.85;99380.81;4998946;28;20534;-70
2023/02/13 07:35:13;;;;;;;39.00;21.27;;;;;;;6.85;55.31;99381.34;5002804;28;20215;-70
2023/02/13 07:37:39;;;;;;;36.13;19.30;;;;;;;6.81;54.14;99389.41;4998848;28;20185;-68
2023/02/13 07:40:05;;;;;;;38.53;20.10;;;;;;;6.74;53.39;99392.31;4984804;28;20208;-69
2023/02/13 07:42:34;;;;;;;35.40;20.60;;;;;;;6.61;53.59;99384.25;4995387;28;20727;-69
2023/02/13 07:44:59;;;;;;;35.43;21.40;;;;;;;6.59;53.98;99387.84;4983810;28;20501;-69
2023/02/13 07:47:25;;;;;;;33.60;19.77;;;;;;;6.56;53.85;99391.44;4992500;28;20428;-72
2023/02/13 07:49:50;;;;;;;39.27;20.03;;;;;;;6.45;55.88;99391.97;4997059;28;20184;-69
2023/02/13 07:52:16;;;;;;;37.07;20.77;;;;;;;6.42;56.16;99394.69;5001338;28;20267;-67
2023/02/13 07:54:47;;;;;;;35.53;20.60;;;;;;;6.48;56.71;99398.78;4999691;28;20338;-70
2023/02/13 07:57:16;;;;;;;38.00;20.30;;;;;;;6.44;56.72;99397.22;4998741;28;20228;-70
2023/02/13 07:59:42;;;;;;;33.93;20.10;;;;;;;6.49;56.73;99395.25;4995862;28;20507;-70
2023/02/13 08:02:14;;;;;;;35.50;21.00;;;;;;;6.50;56.55;99391.72;4991474;28;20562;-71
2023/02/13 08:04:40;;;;;;;36.60;20.57;;;;;;;6.60;56.62;99392.97;5000714;28;20301;-70
2023/02/13 08:07:06;;;;;;;42.10;22.53;;;;;;;6.51;57.22;99393.41;4987629;28;21182;-69
2023/02/13 08:12:16;;;;;;;35.03;19.10;;;;;;;6.67;57.33;99398.75;4990300;28;20632;-70
2023/02/13 08:14:41;;;;;;;30.80;18.43;;;;;;;6.83;57.61;99393.63;4996289;28;20479;-70
2023/02/13 08:17:08;;;;;;;28.60;17.40;;;;;;;7.00;57.76;99384.97;4988155;28;20205;-69
2023/02/13 08:19:34;;;;;;;24.00;16.30;;;;;;;7.14;56.77;99393.88;4990153;28;20262;-69
2023/02/13 08:22:00;;;;;;;29.83;17.10;;;;;;;7.41;56.83;99399.47;4991325;28;21222;-70
2023/02/13 08:24:25;;;;;;;26.03;16.70;;;;;;;7.69;56.01;99388.44;4993072;28;20201;-70
2023/02/13 08:26:51;;;;;;;23.70;16.17;;;;;;;7.94;55.38;99391.53;4991383;28;20424;-71
2023/02/13 08:29:16;;;;;;;24.20;15.03;;;;;;;8.20;55.18;99391.84;4992720;28;20562;-70
2023/02/13 08:31:42;;;;;;;23.00;15.60;;;;;;;8.40;54.42;99389.00;4999329;28;20231;-70
2023/02/13 08:34:08;;;;;;;21.47;14.40;;;;;;;8.60;53.40;99389.69;5004537;28;20240;-71
2023/02/13 08:36:33;;;;;;;19.80;14.60;;;;;;;8.12;53.77;99381.84;5004727;28;20185;-70
2023/02/13 08:38:59;;;;;;;21.20;14.00;;;;;;;7.81;55.15;99383.47;5009513;28;20192;-70
2023/02/13 08:41:24;;;;;;;24.27;15.07;;;;;;;8.26;54.88;99375.88;5005715;28;20280;-70
2023/02/13 08:43:50;;;;;;;21.00;14.67;;;;;;;8.59;54.42;99373.16;4998428;28;20315;-70
2023/02/13 08:46:16;;;;;;;23.43;14.80;;;;;;;8.85;53.44;99370.00;5004110;28;20559;-71
2023/02/13 08:48:42;;;;;;;20.40;14.20;;;;;;;9.14;52.02;99370.06;5002356;28;20612;-70
2023/02/13 08:51:09;;;;;;;20.67;14.10;;;;;;;9.44;51.22;99375.25;5010546;28;20428;-70
2023/02/13 08:53:35;;;;;;;20.67;14.23;;;;;;;9.84;51.07;99366.75;5005435;28;20215;-70
2023/02/13 08:56:01;;;;;;;20.57;13.43;;;;;;;10.02;49.81;99358.69;4995199;28;20907;-70
2023/02/13 08:58:26;;;;;;;19.47;13.67;;;;;;;10.18;49.32;99362.03;5005136;28;20483;-70
2023/02/13 09:00:51;;;;;;;23.00;15.07;;;;;;;10.54;48.63;99368.50;5003803;28;20259;-71
2023/02/13 09:03:17;;;;;;;20.60;13.17;;;;;;;10.52;47.82;99362.53;5005025;28;20432;-71
2023/02/13 09:05:43;;;;;;;17.60;12.77;;;;;;;10.29;47.83;99369.19;5001778;28;20250;-70
2023/02/13 09:08:10;;;;;;;18.27;13.57;;;;;;;10.58;48.41;99366.53;4997909;28;20193;-70
2023/02/13 09:10:36;;;;;;;19.27;12.43;;;;;;;11.00;47.07;99363.81;5005464;28;20184;-70
2023/02/13 09:13:02;;;;;;;19.80;12.80;;;;;;;11.25;46.13;99362.16;4991392;28;20511;-70
2023/02/13 09:15:28;;;;;;;17.20;12.70;;;;;;;11.42;45.93;99367.13;5004969;28;20810;-71
2023/02/13 09:17:54;;;;;;;17.60;12.93;;;;;;;11.60;45.32;99367.63;5010139;28;20200;-70
2023/02/13 09:20:19;;;;;;;16.43;12.03;;;;;;;11.92;45.06;99361.91;4994523;28;20190;-70
2023/02/13 09:22:44;;;;;;;17.97;12.53;;;;;;;12.03;44.43;99361.19;5004156;28;20279;-70
2023/02/13 09:25:10;;;;;;;16.70;12.40;;;;;;;12.16;44.32;99370.81;5006055;28;20259;-71
2023/02/13 09:27:37;;;;;;;17.00;12.50;;;;;;;12.29;43.82;99366.38;5004857;28;20335;-69
2023/02/13 09:30:13;;;;;;;19.13;12.30;;;;;;;12.16;43.54;99365.56;5008915;28;20192;-71
2023/02/13 09:32:52;;;;;;;17.20;12.13;;;;;;;12.53;43.83;99363.75;4997970;28;20426;-71
2023/02/13 09:35:18;;;;;;;14.67;11.30;;;;;;;12.77;43.25;99367.31;5005295;28;20447;-70
2023/02/13 09:37:47;;;;;;;17.37;11.73;;;;;;;12.95;42.76;99365.97;5003550;28;20428;-70
2023/02/13 09:40:24;;;;;;;12.47;10.80;;;;;;;13.06;41.45;99359.88;5007697;28;20489;-70
2023/02/13 09:42:51;;;;;;;19.93;12.20;;;;;;;13.24;42.01;99367.34;4982817;28;20456;-70
2023/02/13 09:45:19;;;;;;;15.60;11.20;;;;;;;13.42;41.60;99370.41;4983713;28;20534;-69
2023/02/13 09:47:45;;;;;;;17.50;12.50;;;;;;;13.51;41.01;99367.06;4973189;28;20463;-70
2023/02/13 09:50:16;;;;;;;15.93;11.97;;;;;;;13.57;40.78;99369.22;5001412;28;20444;-69
2023/02/13 09:52:43;;;;;;;14.30;11.20;;;;;;;13.78;40.50;99369.34;4984530;28;20205;-70
2023/02/13 09:55:15;;;;;;;14.80;11.97;;;;;;;13.79;40.60;99371.03;5005468;28;20466;-68
2023/02/13 09:57:57;;;;;;;15.70;11.40;;;;;;;13.81;40.40;99373.53;4996881;28;20503;-72
2023/02/13 10:00:32;;;;;;;14.10;10.70;;;;;;;13.86;39.58;99371.38;4981904;28;20436;-71
2023/02/13 10:02:57;;;;;;;15.17;11.00;;;;;;;13.93;40.14;99374.34;4985277;28;20471;-70
2023/02/13 10:05:32;;;;;;;13.47;10.60;;;;;;;14.16;40.00;99369.09;4999448;28;20465;-70
2023/02/13 10:08:26;;;;;;;15.30;12.20;;;;;;;14.43;39.08;99371.28;5001734;28;20193;-71
2023/02/13 10:11:11;;;;;;;13.83;11.47;;;;;;;14.50;38.46;99376.91;4992407;28;21118;-71
2023/02/13 10:13:52;;;;;;;12.90;10.30;;;;;;;14.26;38.78;99370.84;5003361;28;20447;-71
2023/02/13 10:16:27;;;;;;;16.67;11.77;;;;;;;14.37;39.16;99372.63;5003249;28;20557;-70
2023/02/13 10:18:56;;;;;;;13.23;10.60;;;;;;;14.66;38.87;99371.22;4994896;28;20420;-70
2023/02/13 10:21:27;;;;;;;14.37;10.80;;;;;;;14.72;38.36;99370.75;4984542;28;20431;-71
2023/02/13 10:23:57;;;;;;;15.30;11.97;;;;;;;14.73;38.65;99372.44;5002673;28;20465;-70
2023/02/13 10:26:41;;;;;;;14.83;11.20;;;;;;;14.48;39.02;99374.41;4963100;28;20440;-70
2023/02/13 10:32:00;;;;;;;13.70;10.73;;;;;;;14.83;38.61;99369.84;4986436;28;20465;-71
2023/02/13 10:34:26;;;;;;;13.80;10.77;;;;;;;14.97;37.41;99368.72;4995025;28;20455;-71
2023/02/13 10:36:51;;;;;;;14.90;10.90;;;;;;;15.20;37.21;99369.44;4975501;28;20512;-71
2023/02/13 10:39:25;;;;;;;15.00;11.83;;;;;;;15.06;37.50;99367.97;4976812;28;20507;-71
2023/02/13 10:41:56;;;;;;;16.60;11.23;;;;;;;14.88;37.79;99365.88;4991580;28;20199;-72
2023/02/13 10:44:49;;;;;;;14.23;11.07;;;;;;;15.23;37.13;99368.34;4993401;28;21014;-71
2023/02/13 10:47:41;;;;;;;13.37;10.90;;;;;;;15.24;36.54;99365.56;4974223;28;20416;-70
2023/02/13 10:50:25;;;;;;;13.70;10.50;;;;;;;15.59;36.77;99361.72;4990228;28;20421;-68
2023/02/13 10:53:00;;;;;;;18.67;11.47;;;;;;;15.71;36.27;99356.34;4996165;28;20404;-69
2023/02/13 10:55:30;;;;;;;13.10;10.83;;;;;;;15.81;35.98;99352.78;4977165;28;20498;-70
2023/02/13 10:58:05;;;;;;;14.70;11.00;;;;;;;15.87;36.09;99348.78;4994140;28;20421;-69
2023/02/13 11:00:42;;;;;;;15.87;10.83;;;;;;;16.04;35.93;99344.66;4982967;28;20430;-70
2023/02/13 11:03:20;;;;;;;12.73;10.20;;;;;;;16.65;35.48;99339.31;4979381;28;20986;-69
2023/02/13 11:05:46;;;;;;;21.63;10.23;;;;;;;16.51;34.91;99333.47;4999100;28;20444;-71
2023/02/13 11:08:32;;;;;;;14.07;10.50;;;;;;;16.79;34.31;99328.31;5001059;28;20422;-69
2023/02/13 11:10:57;;;;;;;15.83;10.07;;;;;;;16.57;34.35;99326.78;5001919;28;20219;-70
2023/02/13 11:13:25;;;;;;;14.10;11.33;;;;;;;16.31;35.05;99331.78;4997310;28;20452;-71
2023/02/13 11:16:13;;;;;;;12.90;9.97;;;;;;;16.49;34.78;99324.00;4992888;28;20205;-70
2023/02/13 11:18:40;;;;;;;15.97;11.03;;;;;;;16.76;34.56;99319.81;4989737;28;20436;-71
2023/02/13 11:21:20;;;;;;;12.27;10.73;;;;;;;16.74;34.43;99323.44;4976553;28;20456;-72
2023/02/13 11:23:52;;;;;;;12.47;10.10;;;;;;;16.81;34.83;99322.88;4973844;28;20451;-69
2023/02/13 11:26:33;;;;;;;12.20;9.83;;;;;;;16.98;34.01;99319.53;4994257;28;20795;-70
2023/02/13 11:29:00;;;;;;;14.60;10.80;;;;;;;17.04;33.82;99312.84;4975248;28;20850;-70
2023/02/13 11:31:27;;;;;;;14.23;10.10;;;;;;;17.13;34.14;99316.44;4977478;28;20497;-71
2023/02/13 11:33:53;;;;;;;14.87;11.27;;;;;;;17.33;33.97;99327.81;4992355;28;20444;-71
2023/02/13 11:36:32;;;;;;;13.40;10.83;;;;;;;17.17;34.19;99333.72;4991658;28;20955;-72
2023/02/13 11:39:00;;;;;;;14.20;10.30;;;;;;;16.95;33.82;99325.13;5001500;28;20544;-71
2023/02/13 11:41:27;;;;;;;10.97;9.50;;;;;;;17.16;33.50;99324.94;4998835;28;20915;-72
2023/02/13 11:43:59;;;;;;;14.83;9.93;;;;;;;17.26;33.64;99324.06;4983912;28;20542;-70
2023/02/13 11:46:27;;;;;;;9.80;8.20;;;;;;;17.56;33.28;99317.69;4976014;28;20521;-71
2023/02/13 11:49:04;;;;;;;11.23;9.80;;;;;;;17.48;33.17;99318.41;4990948;28;20435;-71
2023/02/13 11:51:56;;;;;;;13.10;9.67;;;;;;;17.48;32.87;99312.28;4982845;28;20419;-71
2023/02/13 11:54:40;;;;;;;11.60;9.50;;;;;;;17.57;32.76;99307.94;4952747;28;20864;-71
2023/02/13 11:57:14;;;;;;;11.23;9.50;;;;;;;17.40;33.05;99310.38;4971283;28;21009;-71
2023/02/13 11:59:42;;;;;;;10.60;8.40;;;;;;;17.24;33.56;99310.97;4986870;28;20416;-71
2023/02/13 12:02:14;;;;;;;9.40;8.37;;;;;;;17.29;33.36;99313.19;4988965;28;20983;-69
2023/02/13 12:04:39;;;;;;;8.90;7.90;;;;;;;17.40;32.98;99306.88;4987414;28;20445;-71
2023/02/13 12:07:12;;;;;;;10.67;8.50;;;;;;;17.14;33.03;99304.84;4982422;28;21009;-71
2023/02/13 12:09:39;;;;;;;8.80;7.93;;;;;;;17.01;33.10;99303.34;4979130;28;20598;-71
2023/02/13 12:12:05;;;;;;;8.70;7.80;;;;;;;17.24;33.08;99308.34;4984170;28;20886;-71
2023/02/13 12:14:36;;;;;;;9.77;7.23;;;;;;;17.49;32.53;99300.72;4988496;28;20431;-72
2023/02/13 12:17:10;;;;;;;9.83;7.23;;;;;;;17.04;32.62;99297.75;4978006;28;20284;-70
2023/02/13 12:19:49;;;;;;;8.37;6.90;;;;;;;17.42;32.35;99304.91;4975880;28;20838;-71
2023/02/13 12:22:39;;;;;;;19.53;7.70;;;;;;;17.65;31.94;99306.19;4993184;28;20467;-72